In Rescue
 
Open Full Screen Window  High Contrast Mode
Wind Gusting 18 knots
11
May 25, 2022 8:12 PM CDT
Weather Information
Wind Direction
  020 °
Wind Speed
  11 kt (13 mph)
Wind Gust
  18 kt (21 mph)
Altimeter
29.86 in
Visibility
10 SM
Temperature
10° C
50° F
Dewpoint
07° C
45° F
Humidity
82%
1hr Rain Fall
00.00 in.
24hr Rain Fall
00.07 in.
Sky Condition
Overcast @ 1,300 ft
MVFR

METAR KLYV 260112Z AUTO 02011G18KT 10SM OVC013 10/07 A2986 RMK AO2

FAA Disclaimer: The data displayed is for advisory purposes only and is not to be used for flight planning or operations.